sensor_id;sensor_type;location;lat;lon;timestamp;temperature;humidity
29891;DHT22;16759;49.540;8.642;2022-07-19T00:02:04;22.50;71.50
29891;DHT22;16759;49.540;8.642;2022-07-19T00:04:32;22.60;71.30
29891;DHT22;16759;49.540;8.642;2022-07-19T00:06:58;22.30;70.50
29891;DHT22;16759;49.540;8.642;2022-07-19T00:09:24;22.50;70.30
29891;DHT22;16759;49.540;8.642;2022-07-19T00:11:49;22.40;71.20
29891;DHT22;16759;49.540;8.642;2022-07-19T00:14:15;22.40;72.10
29891;DHT22;16759;49.540;8.642;2022-07-19T00:16:43;22.40;69.90
29891;DHT22;16759;49.540;8.642;2022-07-19T00:19:09;22.40;69.80
29891;DHT22;16759;49.540;8.642;2022-07-19T00:21:36;22.60;69.10
29891;DHT22;16759;49.540;8.642;2022-07-19T00:24:02;22.40;69.90
29891;DHT22;16759;49.540;8.642;2022-07-19T00:26:28;22.50;69.00
29891;DHT22;16759;49.540;8.642;2022-07-19T00:28:54;22.40;68.90
29891;DHT22;16759;49.540;8.642;2022-07-19T00:31:20;22.70;68.10
29891;DHT22;16759;49.540;8.642;2022-07-19T00:33:46;22.70;65.80
29891;DHT22;16759;49.540;8.642;2022-07-19T00:36:11;22.70;65.70
29891;DHT22;16759;49.540;8.642;2022-07-19T00:38:39;22.80;64.20
29891;DHT22;16759;49.540;8.642;2022-07-19T00:41:07;22.80;64.30
29891;DHT22;16759;49.540;8.642;2022-07-19T00:43:32;22.70;64.10
29891;DHT22;16759;49.540;8.642;2022-07-19T00:45:58;22.80;64.20
29891;DHT22;16759;49.540;8.642;2022-07-19T00:48:23;22.80;62.30
29891;DHT22;16759;49.540;8.642;2022-07-19T00:50:49;22.90;61.30
29891;DHT22;16759;49.540;8.642;2022-07-19T00:53:15;22.70;62.20
29891;DHT22;16759;49.540;8.642;2022-07-19T00:55:41;23.00;60.70
29891;DHT22;16759;49.540;8.642;2022-07-19T00:58:06;23.10;60.90
29891;DHT22;16759;49.540;8.642;2022-07-19T01:00:34;23.10;60.30
29891;DHT22;16759;49.540;8.642;2022-07-19T01:03:00;23.10;59.40
29891;DHT22;16759;49.540;8.642;2022-07-19T01:05:25;23.10;59.30
29891;DHT22;16759;49.540;8.642;2022-07-19T01:07:51;22.90;64.20
29891;DHT22;16759;49.540;8.642;2022-07-19T01:10:16;22.80;61.70
29891;DHT22;16759;49.540;8.642;2022-07-19T01:12:42;22.70;64.10
29891;DHT22;16759;49.540;8.642;2022-07-19T01:15:14;22.70;61.40
29891;DHT22;16759;49.540;8.642;2022-07-19T01:17:39;22.60;61.60
29891;DHT22;16759;49.540;8.642;2022-07-19T01:20:05;22.70;63.70
29891;DHT22;16759;49.540;8.642;2022-07-19T01:22:33;22.70;61.90
29891;DHT22;16759;49.540;8.642;2022-07-19T01:24:59;22.70;64.30
29891;DHT22;16759;49.540;8.642;2022-07-19T01:27:24;22.60;62.90
29891;DHT22;16759;49.540;8.642;2022-07-19T01:29:49;22.60;65.50
29891;DHT22;16759;49.540;8.642;2022-07-19T01:32:15;22.50;64.20
29891;DHT22;16759;49.540;8.642;2022-07-19T01:34:40;22.50;64.50
29891;DHT22;16759;49.540;8.642;2022-07-19T01:37:06;22.60;64.10
29891;DHT22;16759;49.540;8.642;2022-07-19T01:39:32;22.50;64.50
29891;DHT22;16759;49.540;8.642;2022-07-19T01:42:00;22.60;66.40
29891;DHT22;16759;49.540;8.642;2022-07-19T01:44:28;22.60;66.30
29891;DHT22;16759;49.540;8.642;2022-07-19T01:46:58;22.50;63.50
29891;DHT22;16759;49.540;8.642;2022-07-19T01:49:24;22.50;63.10
29891;DHT22;16759;49.540;8.642;2022-07-19T01:51:49;22.40;66.80
29891;DHT22;16759;49.540;8.642;2022-07-19T01:54:15;22.30;67.50
29891;DHT22;16759;49.540;8.642;2022-07-19T01:56:43;22.20;64.60
29891;DHT22;16759;49.540;8.642;2022-07-19T01:59:11;22.10;67.80
29891;DHT22;16759;49.540;8.642;2022-07-19T02:01:39;21.90;65.40
29891;DHT22;16759;49.540;8.642;2022-07-19T02:04:05;21.90;65.00
29891;DHT22;16759;49.540;8.642;2022-07-19T02:06:33;21.80;65.70
29891;DHT22;16759;49.540;8.642;2022-07-19T02:08:58;21.80;68.40
29891;DHT22;16759;49.540;8.642;2022-07-19T02:11:24;21.80;65.50
29891;DHT22;16759;49.540;8.642;2022-07-19T02:14:02;21.70;65.70
29891;DHT22;16759;49.540;8.642;2022-07-19T02:16:27;21.50;68.90
29891;DHT22;16759;49.540;8.642;2022-07-19T02:18:53;21.30;69.60
29891;DHT22;16759;49.540;8.642;2022-07-19T02:21:18;20.90;73.90
29891;DHT22;16759;49.540;8.642;2022-07-19T02:23:44;20.30;74.00
29891;DHT22;16759;49.540;8.642;2022-07-19T02:26:12;20.10;77.50
29891;DHT22;16759;49.540;8.642;2022-07-19T02:28:38;19.90;76.30
29891;DHT22;16759;49.540;8.642;2022-07-19T02:31:03;19.80;79.70
29891;DHT22;16759;49.540;8.642;2022-07-19T02:33:29;19.80;80.20
29891;DHT22;16759;49.540;8.642;2022-07-19T02:35:55;19.70;79.40
29891;DHT22;16759;49.540;8.642;2022-07-19T02:38:20;19.50;81.30
29891;DHT22;16759;49.540;8.642;2022-07-19T02:40:45;19.50;80.00
29891;DHT22;16759;49.540;8.642;2022-07-19T02:43:11;19.70;78.90
29891;DHT22;16759;49.540;8.642;2022-07-19T02:45:39;19.50;79.70
29891;DHT22;16759;49.540;8.642;2022-07-19T02:48:04;19.50;84.20
29891;DHT22;16759;49.540;8.642;2022-07-19T02:50:32;19.40;88.80
29891;DHT22;16759;49.540;8.642;2022-07-19T02:52:58;19.30;90.10
29891;DHT22;16759;49.540;8.642;2022-07-19T02:55:25;19.10;90.60
29891;DHT22;16759;49.540;8.642;2022-07-19T02:57:51;18.90;88.60
29891;DHT22;16759;49.540;8.642;2022-07-19T03:00:16;19.00;90.50
29891;DHT22;16759;49.540;8.642;2022-07-19T03:02:42;19.00;90.30
29891;DHT22;16759;49.540;8.642;2022-07-19T03:05:10;19.00;90.60
29891;DHT22;16759;49.540;8.642;2022-07-19T03:07:38;19.00;88.10
29891;DHT22;16759;49.540;8.642;2022-07-19T03:10:03;19.10;87.00
29891;DHT22;16759;49.540;8.642;2022-07-19T03:12:29;19.10;89.40
29891;DHT22;16759;49.540;8.642;2022-07-19T03:14:55;19.10;86.50
29891;DHT22;16759;49.540;8.642;2022-07-19T03:17:22;19.20;88.00
29891;DHT22;16759;49.540;8.642;2022-07-19T03:19:50;19.30;88.10
29891;DHT22;16759;49.540;8.642;2022-07-19T03:22:15;19.30;87.90
29891;DHT22;16759;49.540;8.642;2022-07-19T03:24:41;19.30;85.70
29891;DHT22;16759;49.540;8.642;2022-07-19T03:27:09;19.30;86.10
29891;DHT22;16759;49.540;8.642;2022-07-19T03:29:34;19.20;86.80
29891;DHT22;16759;49.540;8.642;2022-07-19T03:32:00;19.10;86.90
29891;DHT22;16759;49.540;8.642;2022-07-19T03:34:25;19.30;86.70
29891;DHT22;16759;49.540;8.642;2022-07-19T03:36:51;19.40;85.60
29891;DHT22;16759;49.540;8.642;2022-07-19T03:39:17;19.40;88.10
29891;DHT22;16759;49.540;8.642;2022-07-19T03:41:42;19.40;85.60
29891;DHT22;16759;49.540;8.642;2022-07-19T03:44:08;19.60;84.00
29891;DHT22;16759;49.540;8.642;2022-07-19T03:46:33;19.70;82.30
29891;DHT22;16759;49.540;8.642;2022-07-19T03:48:59;19.30;85.50
29891;DHT22;16759;49.540;8.642;2022-07-19T03:51:24;19.30;88.10
29891;DHT22;16759;49.540;8.642;2022-07-19T03:53:50;19.20;89.50
29891;DHT22;16759;49.540;8.642;2022-07-19T03:56:15;18.90;90.40
29891;DHT22;16759;49.540;8.642;2022-07-19T03:58:43;19.10;86.20
29891;DHT22;16759;49.540;8.642;2022-07-19T04:01:08;19.10;89.80
29891;DHT22;16759;49.540;8.642;2022-07-19T04:03:36;19.10;86.50
29891;DHT22;16759;49.540;8.642;2022-07-19T04:06:03;19.30;88.20
29891;DHT22;16759;49.540;8.642;2022-07-19T04:08:31;19.40;85.80
29891;DHT22;16759;49.540;8.642;2022-07-19T04:10:57;19.40;85.80
29891;DHT22;16759;49.540;8.642;2022-07-19T04:13:23;18.90;90.20
29891;DHT22;16759;49.540;8.642;2022-07-19T04:15:48;18.60;91.10
29891;DHT22;16759;49.540;8.642;2022-07-19T04:18:14;18.50;91.40
29891;DHT22;16759;49.540;8.642;2022-07-19T04:20:39;18.60;90.20
29891;DHT22;16759;49.540;8.642;2022-07-19T04:23:05;18.60;90.90
29891;DHT22;16759;49.540;8.642;2022-07-19T04:25:30;18.30;91.40
29891;DHT22;16759;49.540;8.642;2022-07-19T04:27:56;18.30;93.50
29891;DHT22;16759;49.540;8.642;2022-07-19T04:30:24;18.20;95.00
29891;DHT22;16759;49.540;8.642;2022-07-19T04:32:52;18.40;95.70
29891;DHT22;16759;49.540;8.642;2022-07-19T04:35:17;18.30;96.40
29891;DHT22;16759;49.540;8.642;2022-07-19T04:37:43;18.50;96.50
29891;DHT22;16759;49.540;8.642;2022-07-19T04:40:09;18.70;95.80
29891;DHT22;16759;49.540;8.642;2022-07-19T04:42:34;18.70;95.60
29891;DHT22;16759;49.540;8.642;2022-07-19T04:45:00;18.80;96.70
29891;DHT22;16759;49.540;8.642;2022-07-19T04:47:28;18.80;96.30
29891;DHT22;16759;49.540;8.642;2022-07-19T04:49:53;19.00;94.40
29891;DHT22;16759;49.540;8.642;2022-07-19T04:52:21;19.20;93.90
29891;DHT22;16759;49.540;8.642;2022-07-19T04:54:47;19.50;93.30
29891;DHT22;16759;49.540;8.642;2022-07-19T04:57:12;19.70;93.80
29891;DHT22;16759;49.540;8.642;2022-07-19T04:59:39;19.80;92.60
29891;DHT22;16759;49.540;8.642;2022-07-19T05:02:04;19.90;91.50
29891;DHT22;16759;49.540;8.642;2022-07-19T05:04:30;20.00;90.80
29891;DHT22;16759;49.540;8.642;2022-07-19T05:06:55;20.00;92.00
29891;DHT22;16759;49.540;8.642;2022-07-19T05:09:24;20.10;90.20
29891;DHT22;16759;49.540;8.642;2022-07-19T05:11:50;20.10;92.50
29891;DHT22;16759;49.540;8.642;2022-07-19T05:14:15;20.10;93.50
29891;DHT22;16759;49.540;8.642;2022-07-19T05:16:41;20.00;94.10
29891;DHT22;16759;49.540;8.642;2022-07-19T05:19:06;20.10;92.40
29891;DHT22;16759;49.540;8.642;2022-07-19T05:21:34;20.10;93.00
29891;DHT22;16759;49.540;8.642;2022-07-19T05:24:00;20.40;90.90
29891;DHT22;16759;49.540;8.642;2022-07-19T05:26:26;20.50;91.70
29891;DHT22;16759;49.540;8.642;2022-07-19T05:28:54;20.70;92.00
29891;DHT22;16759;49.540;8.642;2022-07-19T05:31:19;20.80;92.00
29891;DHT22;16759;49.540;8.642;2022-07-19T05:33:45;21.00;91.50
29891;DHT22;16759;49.540;8.642;2022-07-19T05:36:13;21.20;89.80
29891;DHT22;16759;49.540;8.642;2022-07-19T05:38:40;21.30;90.90
29891;DHT22;16759;49.540;8.642;2022-07-19T05:41:08;21.40;89.80
29891;DHT22;16759;49.540;8.642;2022-07-19T05:43:35;21.50;89.70
29891;DHT22;16759;49.540;8.642;2022-07-19T05:46:02;21.50;90.50
29891;DHT22;16759;49.540;8.642;2022-07-19T05:48:27;21.60;87.60
29891;DHT22;16759;49.540;8.642;2022-07-19T05:50:58;21.80;89.10
29891;DHT22;16759;49.540;8.642;2022-07-19T05:53:24;21.90;87.00
29891;DHT22;16759;49.540;8.642;2022-07-19T05:55:51;22.00;88.00
29891;DHT22;16759;49.540;8.642;2022-07-19T05:58:17;22.10;89.90
29891;DHT22;16759;49.540;8.642;2022-07-19T06:00:45;22.10;87.30
29891;DHT22;16759;49.540;8.642;2022-07-19T06:03:31;22.20;86.20
29891;DHT22;16759;49.540;8.642;2022-07-19T06:05:56;22.30;87.20
29891;DHT22;16759;49.540;8.642;2022-07-19T06:08:22;22.10;87.90
29891;DHT22;16759;49.540;8.642;2022-07-19T06:10:50;22.20;89.10
29891;DHT22;16759;49.540;8.642;2022-07-19T06:13:18;22.30;88.00
29891;DHT22;16759;49.540;8.642;2022-07-19T06:15:44;22.50;89.60
29891;DHT22;16759;49.540;8.642;2022-07-19T06:18:14;22.50;88.30
29891;DHT22;16759;49.540;8.642;2022-07-19T06:20:39;22.70;90.20
29891;DHT22;16759;49.540;8.642;2022-07-19T06:23:05;22.70;89.10
29891;DHT22;16759;49.540;8.642;2022-07-19T06:25:33;22.90;85.80
29891;DHT22;16759;49.540;8.642;2022-07-19T06:27:58;23.00;86.00
29891;DHT22;16759;49.540;8.642;2022-07-19T06:30:24;23.20;85.80
29891;DHT22;16759;49.540;8.642;2022-07-19T06:32:49;23.40;84.40
29891;DHT22;16759;49.540;8.642;2022-07-19T06:35:15;23.70;85.20
29891;DHT22;16759;49.540;8.642;2022-07-19T06:37:40;23.80;84.50
29891;DHT22;16759;49.540;8.642;2022-07-19T06:40:06;23.80;85.40
29891;DHT22;16759;49.540;8.642;2022-07-19T06:42:31;23.80;85.00
29891;DHT22;16759;49.540;8.642;2022-07-19T06:44:58;24.10;83.20
29891;DHT22;16759;49.540;8.642;2022-07-19T06:47:27;24.20;83.40
29891;DHT22;16759;49.540;8.642;2022-07-19T06:49:55;24.20;83.10
29891;DHT22;16759;49.540;8.642;2022-07-19T06:52:23;24.30;80.50
29891;DHT22;16759;49.540;8.642;2022-07-19T06:54:51;24.40;80.80
29891;DHT22;16759;49.540;8.642;2022-07-19T06:57:19;24.50;81.50
29891;DHT22;16759;49.540;8.642;2022-07-19T06:59:44;24.50;83.20
29891;DHT22;16759;49.540;8.642;2022-07-19T07:02:10;24.40;83.40
29891;DHT22;16759;49.540;8.642;2022-07-19T07:04:35;24.50;82.60
29891;DHT22;16759;49.540;8.642;2022-07-19T07:07:03;24.50;82.30
29891;DHT22;16759;49.540;8.642;2022-07-19T07:09:29;24.60;81.80
29891;DHT22;16759;49.540;8.642;2022-07-19T07:11:57;24.70;82.40
29891;DHT22;16759;49.540;8.642;2022-07-19T07:14:22;24.90;81.60
29891;DHT22;16759;49.540;8.642;2022-07-19T07:16:48;24.90;81.10
29891;DHT22;16759;49.540;8.642;2022-07-19T07:19:13;25.10;81.00
29891;DHT22;16759;49.540;8.642;2022-07-19T07:21:39;25.10;81.50
29891;DHT22;16759;49.540;8.642;2022-07-19T07:24:04;25.20;80.30
29891;DHT22;16759;49.540;8.642;2022-07-19T07:26:30;25.20;81.20
29891;DHT22;16759;49.540;8.642;2022-07-19T07:28:56;25.20;81.20
29891;DHT22;16759;49.540;8.642;2022-07-19T07:31:22;25.40;80.70
29891;DHT22;16759;49.540;8.642;2022-07-19T07:33:47;25.50;79.80
29891;DHT22;16759;49.540;8.642;2022-07-19T07:36:13;25.50;79.50
29891;DHT22;16759;49.540;8.642;2022-07-19T07:38:38;25.60;80.40
29891;DHT22;16759;49.540;8.642;2022-07-19T07:41:04;25.60;81.50
29891;DHT22;16759;49.540;8.642;2022-07-19T07:43:30;25.60;81.00
29891;DHT22;16759;49.540;8.642;2022-07-19T07:45:58;25.90;79.20
29891;DHT22;16759;49.540;8.642;2022-07-19T07:48:23;26.20;77.60
29891;DHT22;16759;49.540;8.642;2022-07-19T07:50:53;26.30;75.70
29891;DHT22;16759;49.540;8.642;2022-07-19T07:53:21;26.40;74.00
29891;DHT22;16759;49.540;8.642;2022-07-19T07:55:46;26.30;79.00
29891;DHT22;16759;49.540;8.642;2022-07-19T07:58:14;26.30;79.70
29891;DHT22;16759;49.540;8.642;2022-07-19T08:00:40;26.40;78.40
29891;DHT22;16759;49.540;8.642;2022-07-19T08:03:06;26.40;76.10
29891;DHT22;16759;49.540;8.642;2022-07-19T08:05:34;26.60;76.10
29891;DHT22;16759;49.540;8.642;2022-07-19T08:08:00;26.80;77.50
29891;DHT22;16759;49.540;8.642;2022-07-19T08:10:27;26.80;75.80
29891;DHT22;16759;49.540;8.642;2022-07-19T08:12:52;26.90;77.40
29891;DHT22;16759;49.540;8.642;2022-07-19T08:15:19;27.20;76.30
29891;DHT22;16759;49.540;8.642;2022-07-19T08:17:47;27.30;74.50
29891;DHT22;16759;49.540;8.642;2022-07-19T08:20:12;27.40;72.90
29891;DHT22;16759;49.540;8.642;2022-07-19T08:22:38;27.50;72.90
29891;DHT22;16759;49.540;8.642;2022-07-19T08:25:06;27.60;71.70
29891;DHT22;16759;49.540;8.642;2022-07-19T08:27:32;27.90;73.10
29891;DHT22;16759;49.540;8.642;2022-07-19T08:29:59;27.80;73.10
29891;DHT22;16759;49.540;8.642;2022-07-19T08:32:24;27.80;70.80
29891;DHT22;16759;49.540;8.642;2022-07-19T08:34:50;27.90;71.70
29891;DHT22;16759;49.540;8.642;2022-07-19T08:37:15;27.90;73.10
29891;DHT22;16759;49.540;8.642;2022-07-19T08:39:41;27.90;70.60
29891;DHT22;16759;49.540;8.642;2022-07-19T08:42:06;28.20;70.90
29891;DHT22;16759;49.540;8.642;2022-07-19T08:44:32;28.40;71.10
29891;DHT22;16759;49.540;8.642;2022-07-19T08:47:04;28.50;68.40
29891;DHT22;16759;49.540;8.642;2022-07-19T08:49:30;28.80;67.60
29891;DHT22;16759;49.540;8.642;2022-07-19T08:51:58;28.80;68.50
29891;DHT22;16759;49.540;8.642;2022-07-19T08:54:27;29.00;69.10
29891;DHT22;16759;49.540;8.642;2022-07-19T08:56:53;29.10;65.50
29891;DHT22;16759;49.540;8.642;2022-07-19T08:59:37;29.10;67.10
29891;DHT22;16759;49.540;8.642;2022-07-19T09:02:02;28.90;72.50
29891;DHT22;16759;49.540;8.642;2022-07-19T09:04:28;29.00;70.30
29891;DHT22;16759;49.540;8.642;2022-07-19T09:06:56;29.30;69.70
29891;DHT22;16759;49.540;8.642;2022-07-19T09:11:51;29.50;71.90
29891;DHT22;16759;49.540;8.642;2022-07-19T09:14:18;29.50;74.20
29891;DHT22;16759;49.540;8.642;2022-07-19T09:19:30;29.60;70.70
29891;DHT22;16759;49.540;8.642;2022-07-19T09:24:29;30.10;65.40
29891;DHT22;16759;49.540;8.642;2022-07-19T09:26:59;30.30;68.10
29891;DHT22;16759;49.540;8.642;2022-07-19T09:29:25;30.20;63.40
29891;DHT22;16759;49.540;8.642;2022-07-19T09:32:00;30.20;63.10
29891;DHT22;16759;49.540;8.642;2022-07-19T09:34:26;30.40;59.50
29891;DHT22;16759;49.540;8.642;2022-07-19T09:37:06;30.80;61.00
29891;DHT22;16759;49.540;8.642;2022-07-19T09:39:32;30.80;57.60
29891;DHT22;16759;49.540;8.642;2022-07-19T09:41:57;30.90;58.70
29891;DHT22;16759;49.540;8.642;2022-07-19T09:44:23;31.10;59.20
29891;DHT22;16759;49.540;8.642;2022-07-19T09:46:49;31.00;58.00
29891;DHT22;16759;49.540;8.642;2022-07-19T09:49:17;31.10;56.10
29891;DHT22;16759;49.540;8.642;2022-07-19T09:51:52;31.50;54.40
29891;DHT22;16759;49.540;8.642;2022-07-19T09:54:22;31.10;54.10
29891;DHT22;16759;49.540;8.642;2022-07-19T09:56:48;31.10;57.10
29891;DHT22;16759;49.540;8.642;2022-07-19T09:59:15;31.40;52.10
29891;DHT22;16759;49.540;8.642;2022-07-19T10:01:42;31.30;54.30
29891;DHT22;16759;49.540;8.642;2022-07-19T10:04:08;31.30;54.60
29891;DHT22;16759;49.540;8.642;2022-07-19T10:06:34;31.40;54.30
29891;DHT22;16759;49.540;8.642;2022-07-19T10:09:03;31.70;50.30
29891;DHT22;16759;49.540;8.642;2022-07-19T10:11:31;31.50;51.10
29891;DHT22;16759;49.540;8.642;2022-07-19T10:13:57;31.80;51.10
29891;DHT22;16759;49.540;8.642;2022-07-19T10:19:12;32.10;52.30
29891;DHT22;16759;49.540;8.642;2022-07-19T10:21:41;32.00;50.30
29891;DHT22;16759;49.540;8.642;2022-07-19T10:24:07;32.10;52.00
29891;DHT22;16759;49.540;8.642;2022-07-19T10:29:33;32.20;46.40
29891;DHT22;16759;49.540;8.642;2022-07-19T10:32:04;32.20;49.80
29891;DHT22;16759;49.540;8.642;2022-07-19T10:34:32;32.30;53.50
29891;DHT22;16759;49.540;8.642;2022-07-19T10:36:58;32.80;46.80
29891;DHT22;16759;49.540;8.642;2022-07-19T10:39:24;33.10;46.20
29891;DHT22;16759;49.540;8.642;2022-07-19T10:44:33;33.20;45.60
29891;DHT22;16759;49.540;8.642;2022-07-19T10:46:58;33.30;44.30
29891;DHT22;16759;49.540;8.642;2022-07-19T10:49:45;33.20;45.20
29891;DHT22;16759;49.540;8.642;2022-07-19T10:52:56;33.40;45.50
29891;DHT22;16759;49.540;8.642;2022-07-19T11:00:16;33.60;44.00
29891;DHT22;16759;49.540;8.642;2022-07-19T11:02:41;33.60;44.60
29891;DHT22;16759;49.540;8.642;2022-07-19T11:05:07;33.60;43.40
29891;DHT22;16759;49.540;8.642;2022-07-19T11:07:33;33.40;43.80
29891;DHT22;16759;49.540;8.642;2022-07-19T11:09:59;33.40;43.70
29891;DHT22;16759;49.540;8.642;2022-07-19T11:12:32;33.60;44.00
29891;DHT22;16759;49.540;8.642;2022-07-19T11:14:59;33.70;44.10
29891;DHT22;16759;49.540;8.642;2022-07-19T11:17:24;33.60;42.50
29891;DHT22;16759;49.540;8.642;2022-07-19T11:22:24;34.00;46.50
29891;DHT22;16759;49.540;8.642;2022-07-19T11:24:50;34.10;42.40
29891;DHT22;16759;49.540;8.642;2022-07-19T11:27:16;33.80;42.50
29891;DHT22;16759;49.540;8.642;2022-07-19T11:29:58;34.10;41.20
29891;DHT22;16759;49.540;8.642;2022-07-19T11:32:24;34.10;42.00
29891;DHT22;16759;49.540;8.642;2022-07-19T11:34:53;33.90;39.60
29891;DHT22;16759;49.540;8.642;2022-07-19T11:37:28;34.20;40.40
29891;DHT22;16759;49.540;8.642;2022-07-19T11:39:53;34.10;39.60
29891;DHT22;16759;49.540;8.642;2022-07-19T11:45:10;34.10;41.50
29891;DHT22;16759;49.540;8.642;2022-07-19T11:47:36;34.30;36.70
29891;DHT22;16759;49.540;8.642;2022-07-19T11:50:05;34.50;39.60
29891;DHT22;16759;49.540;8.642;2022-07-19T11:52:44;34.50;40.70
29891;DHT22;16759;49.540;8.642;2022-07-19T11:55:12;34.60;38.30
29891;DHT22;16759;49.540;8.642;2022-07-19T11:57:38;34.70;38.60
29891;DHT22;16759;49.540;8.642;2022-07-19T12:00:04;34.80;40.20
29891;DHT22;16759;49.540;8.642;2022-07-19T12:05:19;35.10;40.60
29891;DHT22;16759;49.540;8.642;2022-07-19T12:07:47;35.40;38.30
29891;DHT22;16759;49.540;8.642;2022-07-19T12:10:31;35.30;38.20
29891;DHT22;16759;49.540;8.642;2022-07-19T12:12:59;35.40;37.50
29891;DHT22;16759;49.540;8.642;2022-07-19T12:15:25;35.60;37.40
29891;DHT22;16759;49.540;8.642;2022-07-19T12:17:54;35.30;37.00
29891;DHT22;16759;49.540;8.642;2022-07-19T12:20:20;35.50;36.60
29891;DHT22;16759;49.540;8.642;2022-07-19T12:22:48;35.90;37.30
29891;DHT22;16759;49.540;8.642;2022-07-19T12:25:13;36.00;38.70
29891;DHT22;16759;49.540;8.642;2022-07-19T12:27:41;36.20;36.80
29891;DHT22;16759;49.540;8.642;2022-07-19T12:30:16;36.20;32.70
29891;DHT22;16759;49.540;8.642;2022-07-19T12:32:42;36.30;34.80
29891;DHT22;16759;49.540;8.642;2022-07-19T12:35:11;36.30;35.40
29891;DHT22;16759;49.540;8.642;2022-07-19T12:37:40;36.40;33.90
29891;DHT22;16759;49.540;8.642;2022-07-19T12:45:13;37.10;33.10
29891;DHT22;16759;49.540;8.642;2022-07-19T12:47:41;36.60;32.60
29891;DHT22;16759;49.540;8.642;2022-07-19T12:50:07;37.00;35.20
29891;DHT22;16759;49.540;8.642;2022-07-19T12:52:33;37.00;32.10
29891;DHT22;16759;49.540;8.642;2022-07-19T12:54:58;36.90;29.70
29891;DHT22;16759;49.540;8.642;2022-07-19T12:57:24;37.20;30.10
29891;DHT22;16759;49.540;8.642;2022-07-19T12:59:49;37.20;30.90
29891;DHT22;16759;49.540;8.642;2022-07-19T13:02:16;37.60;34.10
29891;DHT22;16759;49.540;8.642;2022-07-19T13:04:42;37.70;31.30
29891;DHT22;16759;49.540;8.642;2022-07-19T13:07:08;37.80;32.20
29891;DHT22;16759;49.540;8.642;2022-07-19T13:09:34;37.90;31.60
29891;DHT22;16759;49.540;8.642;2022-07-19T13:12:00;38.00;33.20
29891;DHT22;16759;49.540;8.642;2022-07-19T13:14:26;38.20;28.90
29891;DHT22;16759;49.540;8.642;2022-07-19T13:16:52;38.00;29.90
29891;DHT22;16759;49.540;8.642;2022-07-19T13:19:17;39.60;27.60
29891;DHT22;16759;49.540;8.642;2022-07-19T13:21:43;42.50;26.40
29891;DHT22;16759;49.540;8.642;2022-07-19T13:24:08;43.80;23.50
29891;DHT22;16759;49.540;8.642;2022-07-19T13:26:34;43.90;22.40
29891;DHT22;16759;49.540;8.642;2022-07-19T13:28:59;44.20;22.70
29891;DHT22;16759;49.540;8.642;2022-07-19T13:31:25;45.60;23.20
29891;DHT22;16759;49.540;8.642;2022-07-19T13:33:50;45.60;20.40
29891;DHT22;16759;49.540;8.642;2022-07-19T13:36:16;45.00;20.50
29891;DHT22;16759;49.540;8.642;2022-07-19T13:38:41;44.20;20.20
29891;DHT22;16759;49.540;8.642;2022-07-19T13:41:07;45.50;21.00
29891;DHT22;16759;49.540;8.642;2022-07-19T13:43:35;46.30;20.20
29891;DHT22;16759;49.540;8.642;2022-07-19T13:46:01;46.80;18.60
29891;DHT22;16759;49.540;8.642;2022-07-19T13:48:26;46.90;18.60
29891;DHT22;16759;49.540;8.642;2022-07-19T13:50:52;47.20;16.20
29891;DHT22;16759;49.540;8.642;2022-07-19T13:53:20;47.10;16.60
29891;DHT22;16759;49.540;8.642;2022-07-19T13:55:48;47.90;19.20
29891;DHT22;16759;49.540;8.642;2022-07-19T13:58:14;48.30;18.20
29891;DHT22;16759;49.540;8.642;2022-07-19T14:00:40;46.10;18.60
29891;DHT22;16759;49.540;8.642;2022-07-19T14:03:06;46.90;17.50
29891;DHT22;16759;49.540;8.642;2022-07-19T14:05:32;47.50;18.90
29891;DHT22;16759;49.540;8.642;2022-07-19T14:07:57;47.80;17.90
29891;DHT22;16759;49.540;8.642;2022-07-19T14:10:25;47.70;16.90
29891;DHT22;16759;49.540;8.642;2022-07-19T14:12:53;46.90;18.60
29891;DHT22;16759;49.540;8.642;2022-07-19T14:15:21;48.20;18.40
29891;DHT22;16759;49.540;8.642;2022-07-19T14:17:46;48.40;16.80
29891;DHT22;16759;49.540;8.642;2022-07-19T14:20:14;48.80;14.30
29891;DHT22;16759;49.540;8.642;2022-07-19T14:22:39;49.20;15.40
29891;DHT22;16759;49.540;8.642;2022-07-19T14:25:05;48.50;14.80
29891;DHT22;16759;49.540;8.642;2022-07-19T14:27:33;48.00;18.40
29891;DHT22;16759;49.540;8.642;2022-07-19T14:29:58;48.40;16.30
29891;DHT22;16759;49.540;8.642;2022-07-19T14:32:24;48.90;16.30
29891;DHT22;16759;49.540;8.642;2022-07-19T14:34:49;48.40;16.40
29891;DHT22;16759;49.540;8.642;2022-07-19T14:37:15;48.30;14.00
29891;DHT22;16759;49.540;8.642;2022-07-19T14:39:40;47.40;16.80
29891;DHT22;16759;49.540;8.642;2022-07-19T14:42:06;48.80;15.50
29891;DHT22;16759;49.540;8.642;2022-07-19T14:44:32;48.10;14.70
29891;DHT22;16759;49.540;8.642;2022-07-19T14:46:58;49.60;15.70
29891;DHT22;16759;49.540;8.642;2022-07-19T14:49:23;49.00;14.50
29891;DHT22;16759;49.540;8.642;2022-07-19T14:51:49;49.10;15.80
29891;DHT22;16759;49.540;8.642;2022-07-19T14:54:17;48.50;18.40
29891;DHT22;16759;49.540;8.642;2022-07-19T14:56:42;48.70;14.30
29891;DHT22;16759;49.540;8.642;2022-07-19T14:59:08;48.50;16.40
29891;DHT22;16759;49.540;8.642;2022-07-19T15:01:33;48.80;16.90
29891;DHT22;16759;49.540;8.642;2022-07-19T15:03:59;48.80;16.40
29891;DHT22;16759;49.540;8.642;2022-07-19T15:06:24;50.00;14.90
29891;DHT22;16759;49.540;8.642;2022-07-19T15:08:50;50.20;15.00
29891;DHT22;16759;49.540;8.642;2022-07-19T15:11:15;48.70;15.60
29891;DHT22;16759;49.540;8.642;2022-07-19T15:13:42;49.40;17.00
29891;DHT22;16759;49.540;8.642;2022-07-19T15:16:08;50.40;16.40
29891;DHT22;16759;49.540;8.642;2022-07-19T15:18:36;50.20;15.60
29891;DHT22;16759;49.540;8.642;2022-07-19T15:21:01;50.50;16.20
29891;DHT22;16759;49.540;8.642;2022-07-19T15:23:27;50.90;15.70
29891;DHT22;16759;49.540;8.642;2022-07-19T15:25:52;51.00;14.30
29891;DHT22;16759;49.540;8.642;2022-07-19T15:28:18;49.90;15.00
29891;DHT22;16759;49.540;8.642;2022-07-19T15:30:44;49.20;16.50
29891;DHT22;16759;49.540;8.642;2022-07-19T15:33:09;49.50;15.10
29891;DHT22;16759;49.540;8.642;2022-07-19T15:35:35;49.80;16.80
29891;DHT22;16759;49.540;8.642;2022-07-19T15:38:00;50.30;14.70
29891;DHT22;16759;49.540;8.642;2022-07-19T15:40:26;50.30;15.60
29891;DHT22;16759;49.540;8.642;2022-07-19T15:42:51;50.30;14.90
29891;DHT22;16759;49.540;8.642;2022-07-19T15:45:17;50.10;13.30
29891;DHT22;16759;49.540;8.642;2022-07-19T15:47:43;50.30;15.20
29891;DHT22;16759;49.540;8.642;2022-07-19T15:50:09;49.10;14.30
29891;DHT22;16759;49.540;8.642;2022-07-19T15:52:35;50.70;14.80
29891;DHT22;16759;49.540;8.642;2022-07-19T15:55:04;49.80;14.90
29891;DHT22;16759;49.540;8.642;2022-07-19T15:57:30;50.00;16.00
29891;DHT22;16759;49.540;8.642;2022-07-19T15:59:55;50.30;16.50
29891;DHT22;16759;49.540;8.642;2022-07-19T16:02:23;50.20;15.60